createdAt,value
2022-12-08T00:00:37.385Z,7.20
2022-12-08T00:05:58.247Z,6.50
2022-12-08T00:11:00.042Z,6.60
2022-12-08T00:16:02.204Z,7.20
2022-12-08T00:21:04.372Z,6.40
2022-12-08T00:26:07.142Z,6.60
2022-12-08T00:31:11.717Z,7.00
2022-12-08T00:36:15.047Z,6.70
2022-12-08T00:41:39.922Z,6.90
2022-12-08T00:46:42.003Z,6.90
2022-12-08T00:51:44.944Z,7.20
2022-12-08T00:56:46.741Z,7.10
2022-12-08T01:01:49.025Z,7.10
2022-12-08T01:06:50.957Z,6.10
2022-12-08T01:11:52.762Z,7.80
2022-12-08T01:16:54.638Z,6.80
2022-12-08T01:21:56.461Z,6.80
2022-12-08T01:26:58.248Z,7.00
2022-12-08T01:32:00.069Z,7.20
2022-12-08T01:37:01.813Z,7.60
2022-12-08T01:42:03.658Z,7.90
2022-12-08T01:47:05.702Z,7.10
2022-12-08T01:52:13.592Z,6.40
2022-12-08T01:57:24.356Z,6.70
2022-12-08T02:02:31.487Z,5.90
2022-12-08T02:07:34.594Z,6.70
2022-12-08T02:12:36.363Z,7.60
2022-12-08T02:17:38.045Z,8.10
2022-12-08T02:23:03.515Z,6.80
2022-12-08T02:28:11.348Z,6.90
2022-12-08T02:33:37.932Z,6.30
2022-12-08T02:39:01.088Z,7.00
2022-12-08T02:44:29.046Z,6.50
2022-12-08T02:49:35.367Z,5.90
2022-12-08T02:54:41.970Z,6.50
2022-12-08T03:00:01.571Z,7.00
2022-12-08T03:05:16.136Z,6.20
2022-12-08T03:10:24.657Z,6.50
2022-12-08T03:15:27.689Z,6.20
2022-12-08T03:20:31.243Z,7.60
2022-12-08T03:25:37.930Z,6.30
2022-12-08T03:30:43.150Z,6.10
2022-12-08T03:35:46.212Z,6.20
2022-12-08T03:41:10.536Z,7.20
2022-12-08T03:46:12.220Z,7.00
2022-12-08T03:51:14.712Z,7.30
2022-12-08T03:56:35.508Z,7.80
2022-12-08T04:01:37.437Z,7.80
2022-12-08T04:06:39.239Z,8.70
2022-12-08T04:11:40.918Z,7.60
2022-12-08T04:16:42.757Z,8.50
2022-12-08T04:21:44.453Z,8.40
2022-12-08T04:26:46.418Z,8.10
2022-12-08T04:31:48.189Z,6.80
2022-12-08T04:36:50.109Z,8.50
2022-12-08T04:41:51.863Z,8.30
2022-12-08T04:46:53.694Z,8.50
2022-12-08T04:51:55.455Z,8.90
2022-12-08T04:56:57.266Z,7.80
2022-12-08T05:01:59.153Z,9.70
2022-12-08T05:07:01.097Z,10.00
2022-12-08T05:12:02.851Z,11.00
2022-12-08T05:17:09.331Z,10.00
2022-12-08T05:22:11.659Z,9.00
2022-12-08T05:27:13.499Z,10.20
2022-12-08T05:32:15.303Z,10.60
2022-12-08T05:37:17.235Z,9.70
2022-12-08T05:42:24.373Z,8.80
2022-12-08T05:47:28.112Z,8.60
2022-12-08T05:52:32.385Z,9.50
2022-12-08T05:57:34.075Z,10.30
2022-12-08T06:02:36.002Z,8.60
2022-12-08T06:07:38.100Z,8.80
2022-12-08T06:12:40.509Z,9.20
2022-12-08T06:17:42.269Z,8.90
2022-12-08T06:22:43.983Z,7.50
2022-12-08T06:27:45.738Z,7.90
2022-12-08T06:32:47.546Z,7.30
2022-12-08T06:37:51.569Z,8.90
2022-12-08T06:42:53.295Z,8.80
2022-12-08T06:47:54.967Z,11.30
2022-12-08T06:53:04.901Z,9.10
2022-12-08T06:58:07.209Z,9.60
2022-12-08T07:03:10.542Z,8.80
2022-12-08T07:08:12.483Z,9.20
2022-12-08T07:13:14.330Z,8.60
2022-12-08T07:18:16.068Z,8.70
2022-12-08T07:23:17.796Z,9.90
2022-12-08T07:28:19.464Z,8.30
2022-12-08T07:33:21.152Z,9.40
2022-12-08T07:38:23.291Z,10.30
2022-12-08T07:43:25.084Z,10.70
2022-12-08T07:48:26.714Z,10.50
2022-12-08T07:53:28.554Z,13.10
2022-12-08T07:58:30.218Z,16.20
2022-12-08T08:03:32.073Z,18.80
2022-12-08T08:08:33.905Z,14.00
2022-12-08T08:13:35.975Z,12.70
2022-12-08T08:18:37.839Z,14.50
2022-12-08T08:23:39.540Z,18.20
2022-12-08T08:28:41.701Z,12.80
2022-12-08T08:33:43.449Z,12.80
2022-12-08T08:38:45.152Z,12.40
2022-12-08T08:43:46.925Z,14.40
2022-12-08T08:48:48.824Z,13.90
2022-12-08T08:53:50.784Z,18.50
2022-12-08T08:58:53.750Z,19.40
2022-12-08T09:03:56.516Z,21.10
2022-12-08T09:08:58.419Z,12.50
2022-12-08T09:14:00.176Z,9.20
2022-12-08T09:19:02.369Z,8.50
2022-12-08T09:24:04.166Z,7.80
2022-12-08T09:29:05.864Z,8.50
2022-12-08T09:34:07.563Z,7.90
2022-12-08T09:39:09.280Z,7.90
2022-12-08T09:44:29.322Z,8.80
2022-12-08T09:49:39.616Z,8.20
2022-12-08T09:59:47.919Z,7.10
2022-12-08T10:04:50.221Z,7.40
2022-12-08T10:10:37.557Z,6.80
2022-12-08T10:16:29.792Z,7.20
2022-12-08T10:21:32.628Z,6.60
2022-12-08T10:26:34.492Z,5.60
2022-12-08T10:31:36.376Z,5.80
2022-12-08T10:36:49.583Z,7.00
2022-12-08T10:41:51.667Z,6.00
2022-12-08T10:46:53.522Z,5.80
2022-12-08T10:51:55.342Z,6.10
2022-12-08T10:56:57.486Z,6.20
2022-12-08T11:02:00.350Z,6.30
2022-12-08T11:07:06.119Z,6.90
2022-12-08T11:12:13.362Z,6.40
2022-12-08T11:17:23.514Z,6.10
2022-12-08T11:22:25.153Z,7.20
2022-12-08T11:27:27.345Z,6.70
2022-12-08T11:32:29.262Z,7.40
2022-12-08T11:37:41.785Z,5.90
2022-12-08T11:42:52.231Z,8.10
2022-12-08T11:53:06.370Z,6.90
2022-12-08T11:58:26.923Z,7.50
2022-12-08T12:04:07.459Z,7.00
2022-12-08T12:14:33.772Z,5.90
2022-12-08T12:19:39.826Z,6.40
2022-12-08T12:24:44.471Z,6.10
2022-12-08T12:29:56.716Z,6.00
2022-12-08T12:35:00.950Z,5.50
2022-12-08T12:40:17.424Z,3.10
2022-12-08T12:45:21.728Z,4.20
2022-12-08T12:50:33.097Z,3.60
2022-12-08T12:55:59.529Z,4.40
2022-12-08T13:01:10.129Z,3.70
2022-12-08T13:06:14.857Z,4.50
2022-12-08T13:11:18.404Z,4.50
2022-12-08T13:16:24.181Z,5.30
2022-12-08T13:21:33.367Z,9.10
2022-12-08T13:26:44.468Z,5.50
2022-12-08T13:31:51.931Z,7.30
2022-12-08T13:37:12.170Z,7.00
2022-12-08T13:42:24.990Z,6.20
2022-12-08T13:47:35.093Z,6.70
2022-12-08T13:58:02.799Z,5.60
2022-12-08T14:03:04.711Z,7.10
2022-12-08T14:08:36.365Z,7.70
2022-12-08T14:13:40.648Z,9.20
2022-12-08T14:18:42.381Z,6.50
2022-12-08T14:23:44.598Z,7.20
2022-12-08T14:28:46.481Z,7.30
2022-12-08T14:33:51.886Z,8.20
2022-12-08T14:38:58.213Z,8.50
2022-12-08T14:44:01.910Z,9.00
2022-12-08T14:49:04.239Z,11.30
2022-12-08T14:54:13.184Z,14.40
2022-12-08T14:59:27.097Z,16.30
2022-12-08T15:04:28.972Z,18.90
2022-12-08T15:09:44.420Z,18.00
2022-12-08T15:14:55.498Z,29.30
2022-12-08T15:19:58.997Z,26.10
2022-12-08T15:25:00.780Z,30.50
2022-12-08T15:30:02.563Z,32.50
2022-12-08T15:35:04.915Z,33.80
2022-12-08T15:40:11.078Z,34.60
2022-12-08T15:45:17.055Z,35.60
2022-12-08T15:50:21.475Z,37.30
2022-12-08T15:55:23.283Z,35.80
2022-12-08T16:00:51.847Z,32.90
2022-12-08T16:06:16.476Z,32.20
2022-12-08T16:12:04.094Z,31.70
2022-12-08T16:16:52.249Z,30.00
2022-12-08T16:32:50.287Z,39.70
2022-12-08T16:37:52.075Z,38.60
2022-12-08T16:42:53.997Z,37.00
2022-12-08T16:48:00.928Z,37.20
2022-12-08T16:53:06.147Z,31.60
2022-12-08T16:58:07.920Z,32.30
2022-12-08T17:03:13.487Z,32.10
2022-12-08T17:08:15.365Z,32.70
2022-12-08T17:13:17.671Z,31.90
2022-12-08T17:18:19.321Z,33.30
2022-12-08T17:23:21.051Z,33.10
2022-12-08T17:28:51.593Z,34.80
2022-12-08T17:33:45.917Z,39.80
2022-12-08T17:38:47.753Z,37.70
2022-12-08T17:43:49.430Z,42.10
2022-12-08T17:48:51.286Z,42.20
2022-12-08T17:53:53.045Z,44.30
2022-12-08T17:58:55.112Z,36.40
2022-12-08T18:03:58.170Z,35.60
2022-12-08T18:09:00.854Z,36.20
2022-12-08T18:14:09.869Z,41.90
2022-12-08T18:19:13.038Z,45.50
2022-12-08T18:24:22.078Z,47.10
2022-12-08T18:29:24.606Z,48.10
2022-12-08T18:34:26.343Z,42.20
2022-12-08T18:39:32.803Z,46.60
2022-12-08T18:44:34.484Z,53.10
2022-12-08T18:49:36.269Z,57.00
2022-12-08T18:55:08.650Z,58.30
2022-12-08T19:00:02.676Z,59.50
2022-12-08T19:05:06.193Z,54.90
2022-12-08T19:10:08.760Z,56.70
2022-12-08T19:15:11.090Z,56.40
2022-12-08T19:20:13.301Z,56.80
2022-12-08T19:25:15.038Z,54.50
2022-12-08T19:30:17.200Z,60.00
2022-12-08T19:35:19.044Z,55.10
2022-12-08T19:40:39.631Z,71.30
2022-12-08T19:45:41.408Z,74.80
2022-12-08T19:50:43.389Z,75.90
2022-12-08T19:55:45.200Z,73.30
2022-12-08T20:00:48.621Z,66.80
2022-12-08T20:05:53.085Z,75.60
2022-12-08T20:10:56.171Z,72.80
2022-12-08T20:15:58.573Z,80.00
2022-12-08T20:21:01.472Z,75.30
2022-12-08T20:26:08.804Z,66.30
2022-12-08T20:31:25.258Z,81.80
2022-12-08T20:36:27.561Z,68.20
2022-12-08T20:41:29.229Z,60.90
2022-12-08T20:46:31.184Z,54.80
2022-12-08T20:51:34.201Z,48.70
2022-12-08T20:56:36.560Z,57.10
2022-12-08T21:01:38.457Z,53.70
2022-12-08T21:06:40.318Z,50.90
2022-12-08T21:11:42.174Z,57.30
2022-12-08T21:16:44.104Z,43.00
2022-12-08T21:21:46.115Z,33.20
2022-12-08T21:26:48.161Z,43.30
2022-12-08T21:31:50.279Z,51.20
2022-12-08T21:36:53.204Z,47.10
2022-12-08T21:42:14.045Z,49.00
2022-12-08T21:47:16.001Z,46.20
2022-12-08T21:52:17.892Z,43.20
2022-12-08T21:57:20.365Z,46.50
2022-12-08T22:02:22.886Z,41.00
2022-12-08T22:07:25.070Z,38.80
2022-12-08T22:12:28.551Z,39.40
2022-12-08T22:17:30.349Z,35.80
2022-12-08T22:22:34.866Z,37.30
2022-12-08T22:27:37.006Z,32.60
2022-12-08T22:32:39.311Z,31.30
2022-12-08T22:37:41.111Z,35.80
2022-12-08T22:42:43.528Z,30.20
2022-12-08T22:47:45.352Z,29.70
2022-12-08T22:52:47.120Z,29.20
2022-12-08T22:57:48.890Z,25.20
2022-12-08T23:02:50.779Z,20.30
2022-12-08T23:07:52.582Z,18.80
2022-12-08T23:12:56.822Z,18.10
2022-12-08T23:18:01.360Z,20.50
2022-12-08T23:23:03.331Z,20.20
2022-12-08T23:28:05.415Z,16.70
2022-12-08T23:33:07.253Z,17.10
2022-12-08T23:38:09.118Z,19.60
2022-12-08T23:43:10.790Z,18.40
2022-12-08T23:48:12.450Z,17.80
2022-12-08T23:53:14.338Z,19.50
2022-12-08T23:58:16.197Z,18.50
